sensor_id;sensor_type;location;lat;lon;timestamp;temperature;humidity
29281;DHT22;25048;49.590;11.026;2023-06-10T00:02:23;13.10;99.90
29281;DHT22;25048;49.590;11.026;2023-06-10T00:04:50;13.00;99.90
29281;DHT22;25048;49.590;11.026;2023-06-10T00:07:19;13.00;99.90
29281;DHT22;25048;49.590;11.026;2023-06-10T00:09:46;12.90;99.90
29281;DHT22;25048;49.590;11.026;2023-06-10T00:12:14;12.90;99.90
29281;DHT22;25048;49.590;11.026;2023-06-10T00:14:43;12.90;99.90
29281;DHT22;25048;49.590;11.026;2023-06-10T00:17:10;12.90;99.90
29281;DHT22;25048;49.590;11.026;2023-06-10T00:19:38;12.90;99.90
29281;DHT22;25048;49.590;11.026;2023-06-10T00:22:07;12.90;99.90
29281;DHT22;25048;49.590;11.026;2023-06-10T00:24:37;12.80;99.90
29281;DHT22;25048;49.590;11.026;2023-06-10T00:27:04;12.80;99.90
29281;DHT22;25048;49.590;11.026;2023-06-10T00:29:33;12.80;99.90
29281;DHT22;25048;49.590;11.026;2023-06-10T00:32:01;12.80;99.90
29281;DHT22;25048;49.590;11.026;2023-06-10T00:34:28;12.80;99.90
29281;DHT22;25048;49.590;11.026;2023-06-10T00:36:56;12.80;99.90
29281;DHT22;25048;49.590;11.026;2023-06-10T00:39:23;12.70;99.90
29281;DHT22;25048;49.590;11.026;2023-06-10T00:41:51;12.70;99.90
29281;DHT22;25048;49.590;11.026;2023-06-10T00:44:18;12.60;99.90
29281;DHT22;25048;49.590;11.026;2023-06-10T00:46:46;12.60;99.90
29281;DHT22;25048;49.590;11.026;2023-06-10T00:49:14;12.50;99.90
29281;DHT22;25048;49.590;11.026;2023-06-10T00:51:41;12.50;99.90
29281;DHT22;25048;49.590;11.026;2023-06-10T00:54:09;12.50;99.90
29281;DHT22;25048;49.590;11.026;2023-06-10T00:56:39;12.40;99.90
29281;DHT22;25048;49.590;11.026;2023-06-10T00:59:08;12.30;99.90
29281;DHT22;25048;49.590;11.026;2023-06-10T01:01:36;12.30;99.90
29281;DHT22;25048;49.590;11.026;2023-06-10T01:04:04;12.30;99.90
29281;DHT22;25048;49.590;11.026;2023-06-10T01:06:41;12.30;99.90
29281;DHT22;25048;49.590;11.026;2023-06-10T01:09:18;12.20;99.90
29281;DHT22;25048;49.590;11.026;2023-06-10T01:11:56;12.20;99.90
29281;DHT22;25048;49.590;11.026;2023-06-10T01:14:21;12.20;99.90
29281;DHT22;25048;49.590;11.026;2023-06-10T01:16:50;12.20;99.90
29281;DHT22;25048;49.590;11.026;2023-06-10T01:19:19;12.20;99.90
29281;DHT22;25048;49.590;11.026;2023-06-10T01:21:48;12.10;99.90
29281;DHT22;25048;49.590;11.026;2023-06-10T01:24:16;12.10;99.90
29281;DHT22;25048;49.590;11.026;2023-06-10T01:26:45;12.10;99.90
29281;DHT22;25048;49.590;11.026;2023-06-10T01:29:28;12.10;99.90
29281;DHT22;25048;49.590;11.026;2023-06-10T01:31:59;12.10;99.90
29281;DHT22;25048;49.590;11.026;2023-06-10T01:34:25;12.10;99.90
29281;DHT22;25048;49.590;11.026;2023-06-10T01:36:55;12.00;99.90
29281;DHT22;25048;49.590;11.026;2023-06-10T01:39:24;12.00;99.90
29281;DHT22;25048;49.590;11.026;2023-06-10T01:41:53;12.00;99.90
29281;DHT22;25048;49.590;11.026;2023-06-10T01:44:22;12.00;99.90
29281;DHT22;25048;49.590;11.026;2023-06-10T01:46:50;11.90;99.90
29281;DHT22;25048;49.590;11.026;2023-06-10T01:49:17;11.80;99.90
29281;DHT22;25048;49.590;11.026;2023-06-10T01:51:45;11.70;99.90
29281;DHT22;25048;49.590;11.026;2023-06-10T01:54:12;11.70;99.90
29281;DHT22;25048;49.590;11.026;2023-06-10T01:56:40;11.70;99.90
29281;DHT22;25048;49.590;11.026;2023-06-10T01:59:07;11.60;99.90
29281;DHT22;25048;49.590;11.026;2023-06-10T02:01:35;11.60;99.90
29281;DHT22;25048;49.590;11.026;2023-06-10T02:04:02;11.60;99.90
29281;DHT22;25048;49.590;11.026;2023-06-10T02:06:30;11.60;99.90
29281;DHT22;25048;49.590;11.026;2023-06-10T02:08:57;11.50;99.90
29281;DHT22;25048;49.590;11.026;2023-06-10T02:11:25;11.50;99.90
29281;DHT22;25048;49.590;11.026;2023-06-10T02:13:53;11.50;99.90
29281;DHT22;25048;49.590;11.026;2023-06-10T02:16:21;11.50;99.90
29281;DHT22;25048;49.590;11.026;2023-06-10T02:18:49;11.50;99.90
29281;DHT22;25048;49.590;11.026;2023-06-10T02:21:16;11.50;99.90
29281;DHT22;25048;49.590;11.026;2023-06-10T02:23:44;11.50;99.90
29281;DHT22;25048;49.590;11.026;2023-06-10T02:26:11;11.50;99.90
29281;DHT22;25048;49.590;11.026;2023-06-10T02:28:43;11.50;99.90
29281;DHT22;25048;49.590;11.026;2023-06-10T02:31:11;11.50;99.90
29281;DHT22;25048;49.590;11.026;2023-06-10T02:33:38;11.50;99.90
29281;DHT22;25048;49.590;11.026;2023-06-10T02:36:06;11.40;99.90
29281;DHT22;25048;49.590;11.026;2023-06-10T02:38:34;11.40;99.90
29281;DHT22;25048;49.590;11.026;2023-06-10T02:41:01;11.40;99.90
29281;DHT22;25048;49.590;11.026;2023-06-10T02:43:29;11.40;99.90
29281;DHT22;25048;49.590;11.026;2023-06-10T02:45:56;11.40;99.90
29281;DHT22;25048;49.590;11.026;2023-06-10T02:48:24;11.40;99.90
29281;DHT22;25048;49.590;11.026;2023-06-10T02:50:52;11.30;99.90
29281;DHT22;25048;49.590;11.026;2023-06-10T02:53:19;11.30;99.90
29281;DHT22;25048;49.590;11.026;2023-06-10T02:55:47;11.30;99.90
29281;DHT22;25048;49.590;11.026;2023-06-10T02:58:14;11.30;99.90
29281;DHT22;25048;49.590;11.026;2023-06-10T03:00:42;11.30;99.90
29281;DHT22;25048;49.590;11.026;2023-06-10T03:03:11;11.20;99.90
29281;DHT22;25048;49.590;11.026;2023-06-10T03:05:39;11.20;99.90
29281;DHT22;25048;49.590;11.026;2023-06-10T03:08:06;11.20;99.90
29281;DHT22;25048;49.590;11.026;2023-06-10T03:10:34;11.10;99.90
29281;DHT22;25048;49.590;11.026;2023-06-10T03:13:02;11.10;99.90
29281;DHT22;25048;49.590;11.026;2023-06-10T03:15:29;11.10;99.90
29281;DHT22;25048;49.590;11.026;2023-06-10T03:17:59;11.10;99.90
29281;DHT22;25048;49.590;11.026;2023-06-10T03:20:27;11.00;99.90
29281;DHT22;25048;49.590;11.026;2023-06-10T03:22:56;11.00;99.90
29281;DHT22;25048;49.590;11.026;2023-06-10T03:25:24;11.00;99.90
29281;DHT22;25048;49.590;11.026;2023-06-10T03:27:52;11.00;99.90
29281;DHT22;25048;49.590;11.026;2023-06-10T03:30:20;11.00;99.90
29281;DHT22;25048;49.590;11.026;2023-06-10T03:32:47;11.00;99.90
29281;DHT22;25048;49.590;11.026;2023-06-10T03:35:15;11.00;99.90
29281;DHT22;25048;49.590;11.026;2023-06-10T03:37:44;11.00;99.90
29281;DHT22;25048;49.590;11.026;2023-06-10T03:40:12;11.00;99.90
29281;DHT22;25048;49.590;11.026;2023-06-10T03:42:39;11.00;99.90
29281;DHT22;25048;49.590;11.026;2023-06-10T03:45:07;11.00;99.90
29281;DHT22;25048;49.590;11.026;2023-06-10T03:47:35;11.10;99.90
29281;DHT22;25048;49.590;11.026;2023-06-10T03:50:05;11.10;99.90
29281;DHT22;25048;49.590;11.026;2023-06-10T03:52:32;11.10;99.90
29281;DHT22;25048;49.590;11.026;2023-06-10T03:55:00;11.10;99.90
29281;DHT22;25048;49.590;11.026;2023-06-10T03:57:27;11.20;99.90
29281;DHT22;25048;49.590;11.026;2023-06-10T03:59:55;11.20;99.90
29281;DHT22;25048;49.590;11.026;2023-06-10T04:02:23;11.20;99.90
29281;DHT22;25048;49.590;11.026;2023-06-10T04:04:50;11.20;99.90
29281;DHT22;25048;49.590;11.026;2023-06-10T04:07:18;11.20;99.90
29281;DHT22;25048;49.590;11.026;2023-06-10T04:09:46;11.20;99.90
29281;DHT22;25048;49.590;11.026;2023-06-10T04:12:14;11.20;99.90
29281;DHT22;25048;49.590;11.026;2023-06-10T04:14:42;11.20;99.90
29281;DHT22;25048;49.590;11.026;2023-06-10T04:17:10;11.30;99.90
29281;DHT22;25048;49.590;11.026;2023-06-10T04:19:37;11.30;99.90
29281;DHT22;25048;49.590;11.026;2023-06-10T04:22:05;11.40;99.90
29281;DHT22;25048;49.590;11.026;2023-06-10T04:24:33;11.50;99.90
29281;DHT22;25048;49.590;11.026;2023-06-10T04:27:02;11.50;99.90
29281;DHT22;25048;49.590;11.026;2023-06-10T04:29:29;11.60;99.90
29281;DHT22;25048;49.590;11.026;2023-06-10T04:31:57;11.70;99.90
29281;DHT22;25048;49.590;11.026;2023-06-10T04:34:24;11.70;99.90
29281;DHT22;25048;49.590;11.026;2023-06-10T04:36:52;11.80;99.90
29281;DHT22;25048;49.590;11.026;2023-06-10T04:39:19;11.90;99.90
29281;DHT22;25048;49.590;11.026;2023-06-10T04:41:47;12.00;99.90
29281;DHT22;25048;49.590;11.026;2023-06-10T04:44:14;12.10;99.90
29281;DHT22;25048;49.590;11.026;2023-06-10T04:46:42;12.20;99.90
29281;DHT22;25048;49.590;11.026;2023-06-10T04:49:09;12.30;99.90
29281;DHT22;25048;49.590;11.026;2023-06-10T04:51:37;12.40;99.90
29281;DHT22;25048;49.590;11.026;2023-06-10T04:54:04;12.40;99.90
29281;DHT22;25048;49.590;11.026;2023-06-10T04:56:32;12.60;99.90
29281;DHT22;25048;49.590;11.026;2023-06-10T04:59:00;12.70;99.90
29281;DHT22;25048;49.590;11.026;2023-06-10T05:01:27;12.80;99.90
29281;DHT22;25048;49.590;11.026;2023-06-10T05:03:55;12.90;99.90
29281;DHT22;25048;49.590;11.026;2023-06-10T05:06:22;13.00;99.90
29281;DHT22;25048;49.590;11.026;2023-06-10T05:08:50;13.10;99.90
29281;DHT22;25048;49.590;11.026;2023-06-10T05:11:17;13.20;99.90
29281;DHT22;25048;49.590;11.026;2023-06-10T05:13:45;13.40;99.90
29281;DHT22;25048;49.590;11.026;2023-06-10T05:16:12;13.50;99.90
29281;DHT22;25048;49.590;11.026;2023-06-10T05:18:41;13.70;99.90
29281;DHT22;25048;49.590;11.026;2023-06-10T05:21:09;13.90;99.90
29281;DHT22;25048;49.590;11.026;2023-06-10T05:23:38;14.10;99.90
29281;DHT22;25048;49.590;11.026;2023-06-10T05:26:05;14.30;99.90
29281;DHT22;25048;49.590;11.026;2023-06-10T05:28:33;14.50;99.90
29281;DHT22;25048;49.590;11.026;2023-06-10T05:31:00;14.70;99.90
29281;DHT22;25048;49.590;11.026;2023-06-10T05:33:28;15.00;99.90
29281;DHT22;25048;49.590;11.026;2023-06-10T05:35:55;15.20;99.90
29281;DHT22;25048;49.590;11.026;2023-06-10T05:38:23;15.40;99.90
29281;DHT22;25048;49.590;11.026;2023-06-10T05:40:50;15.70;99.90
29281;DHT22;25048;49.590;11.026;2023-06-10T05:43:18;16.10;99.90
29281;DHT22;25048;49.590;11.026;2023-06-10T05:45:45;16.50;99.90
29281;DHT22;25048;49.590;11.026;2023-06-10T05:48:13;16.90;99.90
29281;DHT22;25048;49.590;11.026;2023-06-10T05:50:40;17.40;99.90
29281;DHT22;25048;49.590;11.026;2023-06-10T05:53:10;17.90;99.90
29281;DHT22;25048;49.590;11.026;2023-06-10T05:55:39;18.40;99.90
29281;DHT22;25048;49.590;11.026;2023-06-10T05:58:06;18.70;99.90
29281;DHT22;25048;49.590;11.026;2023-06-10T06:00:34;19.20;99.90
29281;DHT22;25048;49.590;11.026;2023-06-10T06:03:01;19.60;99.90
29281;DHT22;25048;49.590;11.026;2023-06-10T06:05:29;20.00;99.90
29281;DHT22;25048;49.590;11.026;2023-06-10T06:07:58;20.30;99.90
29281;DHT22;25048;49.590;11.026;2023-06-10T06:10:26;20.60;99.90
29281;DHT22;25048;49.590;11.026;2023-06-10T06:12:53;20.90;99.90
29281;DHT22;25048;49.590;11.026;2023-06-10T06:15:21;21.20;99.90
29281;DHT22;25048;49.590;11.026;2023-06-10T06:17:48;21.40;99.90
29281;DHT22;25048;49.590;11.026;2023-06-10T06:20:18;21.70;99.90
29281;DHT22;25048;49.590;11.026;2023-06-10T06:22:46;21.80;99.90
29281;DHT22;25048;49.590;11.026;2023-06-10T06:25:13;22.00;99.90
29281;DHT22;25048;49.590;11.026;2023-06-10T06:27:41;22.10;99.90
29281;DHT22;25048;49.590;11.026;2023-06-10T06:30:09;22.20;99.90
29281;DHT22;25048;49.590;11.026;2023-06-10T06:32:37;22.30;99.90
29281;DHT22;25048;49.590;11.026;2023-06-10T06:35:05;22.30;99.90
29281;DHT22;25048;49.590;11.026;2023-06-10T06:37:35;22.40;99.90
29281;DHT22;25048;49.590;11.026;2023-06-10T06:40:03;22.40;99.90
29281;DHT22;25048;49.590;11.026;2023-06-10T06:42:30;22.50;99.90
29281;DHT22;25048;49.590;11.026;2023-06-10T06:44:58;22.50;99.90
29281;DHT22;25048;49.590;11.026;2023-06-10T06:47:25;22.60;99.90
29281;DHT22;25048;49.590;11.026;2023-06-10T06:49:53;22.70;99.90
29281;DHT22;25048;49.590;11.026;2023-06-10T06:52:20;22.80;99.90
29281;DHT22;25048;49.590;11.026;2023-06-10T06:54:48;22.90;99.90
29281;DHT22;25048;49.590;11.026;2023-06-10T06:57:16;23.00;99.90
29281;DHT22;25048;49.590;11.026;2023-06-10T06:59:43;23.10;99.90
29281;DHT22;25048;49.590;11.026;2023-06-10T07:02:11;23.20;99.90
29281;DHT22;25048;49.590;11.026;2023-06-10T07:04:38;23.20;99.90
29281;DHT22;25048;49.590;11.026;2023-06-10T07:07:10;23.30;99.90
29281;DHT22;25048;49.590;11.026;2023-06-10T07:09:38;23.30;99.90
29281;DHT22;25048;49.590;11.026;2023-06-10T07:12:07;23.30;99.90
29281;DHT22;25048;49.590;11.026;2023-06-10T07:14:34;23.30;99.90
29281;DHT22;25048;49.590;11.026;2023-06-10T07:17:02;23.40;99.90
29281;DHT22;25048;49.590;11.026;2023-06-10T07:19:29;23.40;99.90
29281;DHT22;25048;49.590;11.026;2023-06-10T07:21:57;23.50;99.90
29281;DHT22;25048;49.590;11.026;2023-06-10T07:24:24;23.60;99.90
29281;DHT22;25048;49.590;11.026;2023-06-10T07:26:52;23.70;99.90
29281;DHT22;25048;49.590;11.026;2023-06-10T07:29:19;23.80;99.90
29281;DHT22;25048;49.590;11.026;2023-06-10T07:31:47;23.90;99.90
29281;DHT22;25048;49.590;11.026;2023-06-10T07:34:14;24.00;99.90
29281;DHT22;25048;49.590;11.026;2023-06-10T07:36:42;24.00;99.90
29281;DHT22;25048;49.590;11.026;2023-06-10T07:39:09;24.00;99.90
29281;DHT22;25048;49.590;11.026;2023-06-10T07:41:37;24.10;99.90
29281;DHT22;25048;49.590;11.026;2023-06-10T07:44:04;24.30;99.90
29281;DHT22;25048;49.590;11.026;2023-06-10T07:46:32;24.40;99.90
29281;DHT22;25048;49.590;11.026;2023-06-10T07:48:59;24.40;99.90
29281;DHT22;25048;49.590;11.026;2023-06-10T07:51:27;24.60;99.90
29281;DHT22;25048;49.590;11.026;2023-06-10T07:53:55;24.70;99.90
29281;DHT22;25048;49.590;11.026;2023-06-10T07:56:22;24.90;99.90
29281;DHT22;25048;49.590;11.026;2023-06-10T07:58:50;24.90;99.90
29281;DHT22;25048;49.590;11.026;2023-06-10T08:01:17;24.90;99.90
29281;DHT22;25048;49.590;11.026;2023-06-10T08:03:45;25.00;99.90
29281;DHT22;25048;49.590;11.026;2023-06-10T08:06:12;25.10;99.90
29281;DHT22;25048;49.590;11.026;2023-06-10T08:08:40;25.30;99.90
29281;DHT22;25048;49.590;11.026;2023-06-10T08:11:11;25.40;99.90
29281;DHT22;25048;49.590;11.026;2023-06-10T08:13:38;25.50;99.90
29281;DHT22;25048;49.590;11.026;2023-06-10T08:16:06;25.70;99.90
29281;DHT22;25048;49.590;11.026;2023-06-10T08:18:34;25.80;99.90
29281;DHT22;25048;49.590;11.026;2023-06-10T08:21:01;26.00;99.90
29281;DHT22;25048;49.590;11.026;2023-06-10T08:23:29;26.20;99.90
29281;DHT22;25048;49.590;11.026;2023-06-10T08:25:56;26.40;99.90
29281;DHT22;25048;49.590;11.026;2023-06-10T08:28:24;26.50;99.90
29281;DHT22;25048;49.590;11.026;2023-06-10T08:30:52;26.70;99.90
29281;DHT22;25048;49.590;11.026;2023-06-10T08:33:19;26.80;99.90
29281;DHT22;25048;49.590;11.026;2023-06-10T08:35:47;26.90;99.90
29281;DHT22;25048;49.590;11.026;2023-06-10T08:38:14;27.10;99.90
29281;DHT22;25048;49.590;11.026;2023-06-10T08:40:42;27.20;99.90
29281;DHT22;25048;49.590;11.026;2023-06-10T08:43:39;27.30;99.30
29281;DHT22;25048;49.590;11.026;2023-06-10T08:46:09;27.50;99.90
29281;DHT22;25048;49.590;11.026;2023-06-10T08:48:40;27.70;98.80
29281;DHT22;25048;49.590;11.026;2023-06-10T08:51:09;27.70;98.90
29281;DHT22;25048;49.590;11.026;2023-06-10T08:53:48;27.80;97.50
29281;DHT22;25048;49.590;11.026;2023-06-10T08:56:08;27.90;97.40
29281;DHT22;25048;49.590;11.026;2023-06-10T08:58:36;28.00;95.80
29281;DHT22;25048;49.590;11.026;2023-06-10T09:01:06;28.10;96.80
29281;DHT22;25048;49.590;11.026;2023-06-10T09:03:35;28.10;95.70
29281;DHT22;25048;49.590;11.026;2023-06-10T09:06:05;28.20;97.00
29281;DHT22;25048;49.590;11.026;2023-06-10T09:08:34;28.40;96.30
29281;DHT22;25048;49.590;11.026;2023-06-10T09:11:01;28.60;96.30
29281;DHT22;25048;49.590;11.026;2023-06-10T09:13:29;28.70;94.80
29281;DHT22;25048;49.590;11.026;2023-06-10T09:15:57;28.90;95.10
29281;DHT22;25048;49.590;11.026;2023-06-10T09:18:27;29.00;94.60
29281;DHT22;25048;49.590;11.026;2023-06-10T09:20:55;28.80;94.40
29281;DHT22;25048;49.590;11.026;2023-06-10T09:23:22;28.60;93.80
29281;DHT22;25048;49.590;11.026;2023-06-10T09:25:58;28.60;93.80
29281;DHT22;25048;49.590;11.026;2023-06-10T09:28:26;28.50;93.60
29281;DHT22;25048;49.590;11.026;2023-06-10T09:31:04;28.80;94.60
29281;DHT22;25048;49.590;11.026;2023-06-10T09:33:32;29.10;94.20
29281;DHT22;25048;49.590;11.026;2023-06-10T09:36:02;29.50;93.30
29281;DHT22;25048;49.590;11.026;2023-06-10T09:38:31;29.70;90.90
29281;DHT22;25048;49.590;11.026;2023-06-10T09:40:59;29.70;90.60
29281;DHT22;25048;49.590;11.026;2023-06-10T09:43:38;29.70;90.80
29281;DHT22;25048;49.590;11.026;2023-06-10T09:46:03;29.70;89.50
29281;DHT22;25048;49.590;11.026;2023-06-10T09:48:35;29.60;90.40
29281;DHT22;25048;49.590;11.026;2023-06-10T09:51:08;29.70;89.90
29281;DHT22;25048;49.590;11.026;2023-06-10T09:53:34;29.80;91.20
29281;DHT22;25048;49.590;11.026;2023-06-10T09:56:02;29.80;87.50
29281;DHT22;25048;49.590;11.026;2023-06-10T09:58:41;29.50;87.90
29281;DHT22;25048;49.590;11.026;2023-06-10T10:01:08;29.20;86.90
29281;DHT22;25048;49.590;11.026;2023-06-10T10:03:46;28.80;88.20
29281;DHT22;25048;49.590;11.026;2023-06-10T10:06:18;28.60;90.90
29281;DHT22;25048;49.590;11.026;2023-06-10T10:08:48;28.50;91.00
29281;DHT22;25048;49.590;11.026;2023-06-10T10:11:19;28.40;90.10
29281;DHT22;25048;49.590;11.026;2023-06-10T10:13:49;28.10;89.30
29281;DHT22;25048;49.590;11.026;2023-06-10T10:16:20;28.10;91.50
29281;DHT22;25048;49.590;11.026;2023-06-10T10:18:59;28.20;90.50
29281;DHT22;25048;49.590;11.026;2023-06-10T10:21:24;28.10;90.70
29281;DHT22;25048;49.590;11.026;2023-06-10T10:24:12;28.00;89.90
29281;DHT22;25048;49.590;11.026;2023-06-10T10:26:39;27.90;91.50
29281;DHT22;25048;49.590;11.026;2023-06-10T10:29:39;27.90;91.50
29281;DHT22;25048;49.590;11.026;2023-06-10T10:32:07;27.90;91.00
29281;DHT22;25048;49.590;11.026;2023-06-10T10:37:06;27.80;91.30
29281;DHT22;25048;49.590;11.026;2023-06-10T10:39:35;27.90;92.70
29281;DHT22;25048;49.590;11.026;2023-06-10T10:42:04;27.80;91.70
29281;DHT22;25048;49.590;11.026;2023-06-10T10:44:34;27.80;91.20
29281;DHT22;25048;49.590;11.026;2023-06-10T10:47:03;27.70;91.00
29281;DHT22;25048;49.590;11.026;2023-06-10T10:49:31;27.80;92.50
29281;DHT22;25048;49.590;11.026;2023-06-10T10:52:00;27.90;91.90
29281;DHT22;25048;49.590;11.026;2023-06-10T10:54:35;28.20;94.00
29281;DHT22;25048;49.590;11.026;2023-06-10T10:57:18;28.70;92.30
29281;DHT22;25048;49.590;11.026;2023-06-10T10:59:52;29.00;91.50
29281;DHT22;25048;49.590;11.026;2023-06-10T11:02:35;28.70;87.00
29281;DHT22;25048;49.590;11.026;2023-06-10T11:05:05;28.10;87.50
29281;DHT22;25048;49.590;11.026;2023-06-10T11:10:12;28.20;91.50
29281;DHT22;25048;49.590;11.026;2023-06-10T11:12:51;28.50;90.60
29281;DHT22;25048;49.590;11.026;2023-06-10T11:15:26;28.80;89.10
29281;DHT22;25048;49.590;11.026;2023-06-10T11:21:02;28.70;89.70
29281;DHT22;25048;49.590;11.026;2023-06-10T11:23:39;28.30;87.50
29281;DHT22;25048;49.590;11.026;2023-06-10T11:29:05;28.20;90.20
29281;DHT22;25048;49.590;11.026;2023-06-10T11:31:46;27.90;90.00
29281;DHT22;25048;49.590;11.026;2023-06-10T11:34:15;27.70;90.80
29281;DHT22;25048;49.590;11.026;2023-06-10T11:36:43;27.60;90.40
29281;DHT22;25048;49.590;11.026;2023-06-10T11:39:12;27.30;90.30
29281;DHT22;25048;49.590;11.026;2023-06-10T11:41:40;27.10;92.00
29281;DHT22;25048;49.590;11.026;2023-06-10T11:44:09;27.20;91.40
29281;DHT22;25048;49.590;11.026;2023-06-10T11:46:37;27.50;91.40
29281;DHT22;25048;49.590;11.026;2023-06-10T11:49:05;27.60;91.80
29281;DHT22;25048;49.590;11.026;2023-06-10T11:51:35;27.70;92.40
29281;DHT22;25048;49.590;11.026;2023-06-10T11:54:03;27.90;91.10
29281;DHT22;25048;49.590;11.026;2023-06-10T11:56:32;28.00;91.10
29281;DHT22;25048;49.590;11.026;2023-06-10T11:59:01;28.00;91.10
29281;DHT22;25048;49.590;11.026;2023-06-10T12:01:39;28.30;93.50
29281;DHT22;25048;49.590;11.026;2023-06-10T12:04:09;28.70;90.90
29281;DHT22;25048;49.590;11.026;2023-06-10T12:06:44;28.80;89.80
29281;DHT22;25048;49.590;11.026;2023-06-10T12:11:56;29.10;90.70
29281;DHT22;25048;49.590;11.026;2023-06-10T12:14:55;29.30;86.20
29281;DHT22;25048;49.590;11.026;2023-06-10T12:19:54;29.20;91.00
29281;DHT22;25048;49.590;11.026;2023-06-10T12:22:21;29.40;88.00
29281;DHT22;25048;49.590;11.026;2023-06-10T12:25:00;29.40;86.60
29281;DHT22;25048;49.590;11.026;2023-06-10T12:27:30;29.50;88.10
29281;DHT22;25048;49.590;11.026;2023-06-10T12:29:59;29.80;88.10
29281;DHT22;25048;49.590;11.026;2023-06-10T12:32:46;30.00;85.20
29281;DHT22;25048;49.590;11.026;2023-06-10T12:35:12;30.30;87.90
29281;DHT22;25048;49.590;11.026;2023-06-10T12:37:41;30.70;83.90
29281;DHT22;25048;49.590;11.026;2023-06-10T12:40:09;31.00;84.20
29281;DHT22;25048;49.590;11.026;2023-06-10T12:42:37;31.30;83.80
29281;DHT22;25048;49.590;11.026;2023-06-10T12:45:05;31.60;76.90
29281;DHT22;25048;49.590;11.026;2023-06-10T12:47:36;31.80;79.90
29281;DHT22;25048;49.590;11.026;2023-06-10T12:50:06;31.80;77.60
29281;DHT22;25048;49.590;11.026;2023-06-10T12:52:33;31.50;78.10
29281;DHT22;25048;49.590;11.026;2023-06-10T12:55:01;31.60;82.50
29281;DHT22;25048;49.590;11.026;2023-06-10T12:57:30;31.70;82.20
29281;DHT22;25048;49.590;11.026;2023-06-10T12:59:57;31.90;82.20
29281;DHT22;25048;49.590;11.026;2023-06-10T13:02:27;32.20;79.40
29281;DHT22;25048;49.590;11.026;2023-06-10T13:04:54;32.70;78.10
29281;DHT22;25048;49.590;11.026;2023-06-10T13:07:22;32.90;80.40
29281;DHT22;25048;49.590;11.026;2023-06-10T13:10:09;33.20;76.60
29281;DHT22;25048;49.590;11.026;2023-06-10T13:12:36;33.50;75.00
29281;DHT22;25048;49.590;11.026;2023-06-10T13:15:23;33.00;70.60
29281;DHT22;25048;49.590;11.026;2023-06-10T13:17:53;32.20;73.70
29281;DHT22;25048;49.590;11.026;2023-06-10T13:20:20;31.40;75.50
29281;DHT22;25048;49.590;11.026;2023-06-10T13:22:48;30.80;78.00
29281;DHT22;25048;49.590;11.026;2023-06-10T13:25:16;30.60;79.20
29281;DHT22;25048;49.590;11.026;2023-06-10T13:27:43;30.50;80.00
29281;DHT22;25048;49.590;11.026;2023-06-10T13:30:11;30.50;76.30
29281;DHT22;25048;49.590;11.026;2023-06-10T13:32:39;30.80;78.70
29281;DHT22;25048;49.590;11.026;2023-06-10T13:35:07;31.30;78.80
29281;DHT22;25048;49.590;11.026;2023-06-10T13:37:34;31.80;79.20
29281;DHT22;25048;49.590;11.026;2023-06-10T13:40:03;32.40;76.30
29281;DHT22;25048;49.590;11.026;2023-06-10T13:42:31;32.80;80.00
29281;DHT22;25048;49.590;11.026;2023-06-10T13:44:58;33.10;72.10
29281;DHT22;25048;49.590;11.026;2023-06-10T13:47:26;33.20;75.50
29281;DHT22;25048;49.590;11.026;2023-06-10T13:49:53;33.30;73.10
29281;DHT22;25048;49.590;11.026;2023-06-10T13:52:21;33.50;71.10
29281;DHT22;25048;49.590;11.026;2023-06-10T13:54:48;33.50;69.80
29281;DHT22;25048;49.590;11.026;2023-06-10T13:57:16;33.60;69.00
29281;DHT22;25048;49.590;11.026;2023-06-10T13:59:44;33.40;68.60
29281;DHT22;25048;49.590;11.026;2023-06-10T14:02:11;33.30;69.40
29281;DHT22;25048;49.590;11.026;2023-06-10T14:04:38;33.30;69.70
29281;DHT22;25048;49.590;11.026;2023-06-10T14:07:06;33.50;72.40
29281;DHT22;25048;49.590;11.026;2023-06-10T14:09:34;33.60;67.70
29281;DHT22;25048;49.590;11.026;2023-06-10T14:12:01;33.40;70.40
29281;DHT22;25048;49.590;11.026;2023-06-10T14:14:30;33.50;71.60
29281;DHT22;25048;49.590;11.026;2023-06-10T14:16:59;33.80;71.70
29281;DHT22;25048;49.590;11.026;2023-06-10T14:19:27;34.20;72.40
29281;DHT22;25048;49.590;11.026;2023-06-10T14:21:54;34.60;70.60
29281;DHT22;25048;49.590;11.026;2023-06-10T14:24:22;35.00;67.40
29281;DHT22;25048;49.590;11.026;2023-06-10T14:26:50;35.20;66.90
29281;DHT22;25048;49.590;11.026;2023-06-10T14:29:17;35.20;69.20
29281;DHT22;25048;49.590;11.026;2023-06-10T14:31:45;35.20;61.40
29281;DHT22;25048;49.590;11.026;2023-06-10T14:34:13;34.80;60.30
29281;DHT22;25048;49.590;11.026;2023-06-10T14:36:40;34.40;61.60
29281;DHT22;25048;49.590;11.026;2023-06-10T14:39:08;34.40;62.40
29281;DHT22;25048;49.590;11.026;2023-06-10T14:41:36;34.50;64.50
29281;DHT22;25048;49.590;11.026;2023-06-10T14:44:03;34.60;61.50
29281;DHT22;25048;49.590;11.026;2023-06-10T14:46:31;34.60;63.40
29281;DHT22;25048;49.590;11.026;2023-06-10T14:48:58;34.70;67.80
29281;DHT22;25048;49.590;11.026;2023-06-10T14:51:28;34.90;64.90
29281;DHT22;25048;49.590;11.026;2023-06-10T14:53:55;35.10;65.60
29281;DHT22;25048;49.590;11.026;2023-06-10T14:56:23;35.40;67.80
29281;DHT22;25048;49.590;11.026;2023-06-10T14:58:52;35.50;62.10
29281;DHT22;25048;49.590;11.026;2023-06-10T15:01:19;35.60;63.60
29281;DHT22;25048;49.590;11.026;2023-06-10T15:03:47;35.60;62.00
29281;DHT22;25048;49.590;11.026;2023-06-10T15:06:14;35.00;61.90
29281;DHT22;25048;49.590;11.026;2023-06-10T15:08:43;34.00;62.90
29281;DHT22;25048;49.590;11.026;2023-06-10T15:11:11;32.80;65.60
29281;DHT22;25048;49.590;11.026;2023-06-10T15:13:39;31.90;69.50
29281;DHT22;25048;49.590;11.026;2023-06-10T15:16:06;31.20;72.30
29281;DHT22;25048;49.590;11.026;2023-06-10T15:18:34;30.50;76.20
29281;DHT22;25048;49.590;11.026;2023-06-10T15:21:01;30.00;76.20
29281;DHT22;25048;49.590;11.026;2023-06-10T15:23:29;29.50;77.60
29281;DHT22;25048;49.590;11.026;2023-06-10T15:25:56;29.10;77.90
29281;DHT22;25048;49.590;11.026;2023-06-10T15:28:24;28.70;79.80
29281;DHT22;25048;49.590;11.026;2023-06-10T15:30:51;28.40;80.10
29281;DHT22;25048;49.590;11.026;2023-06-10T15:33:19;28.10;81.00
29281;DHT22;25048;49.590;11.026;2023-06-10T15:35:46;27.80;81.30
29281;DHT22;25048;49.590;11.026;2023-06-10T15:38:14;27.70;81.80
29281;DHT22;25048;49.590;11.026;2023-06-10T15:40:41;27.50;82.90
29281;DHT22;25048;49.590;11.026;2023-06-10T15:43:09;27.40;84.10